• Join FlightAware (Why Join?)
  • Login
  • US Flag 
07:36AM EDT


 

Airport Tracker/Info


-or-


 

Live Flight TrackerFlight Track Log ✈ UAL4612 ✈ 25-Sep-2013 ✈ KMHT - KEWR

Flight Track Log - Related Links

Times and Time Zones

All times are in EDT time to prevent confusion due to time zone crossing. See the UAL4612 flight status page for this flight to view local times or setup timezone preferences in your user account.

Time Position Orientation Groundspeed Altitude Reporting Facility
EDT Latitude Longitude Course Direction KTS MPH feet Rate Location/Type
04:23PM 42.9500 -71.4500 345° North 163 188 1,000  Level KA90
04:23PM 42.9650 -71.4556 345° North 176 203 2,200 2,700 Climbing Boston Center
04:24PM 43.0239 -71.4944 334° Northwest 206 237 5,300 2,820 Climbing Boston Center
04:25PM 43.0656 -71.5192 337° Northwest 221 254 8,000 2,340 Climbing Boston Center
04:26PM 43.0914 -71.6069 292° West 201 231 10,100 2,100 Climbing Boston Center
04:27PM 43.1128 -71.6919 289° West 252 290 12,200 1,680 Climbing Boston Center
04:28PM 43.1428 -71.8142 289° West 299 344 13,400 1,200 Climbing Boston Center
04:29PM 43.1725 -71.9275 290° West 342 394 14,700 1,260 Climbing Boston Center
04:30PM 43.1772 -72.0842 272° West 366 421 16,000 600 Climbing Boston Center
04:31PM 43.1797 -72.2181 272° West 383 441 16,000  Level Boston Center
04:32PM 43.1839 -72.3603 272° West 388 447 16,000  Level Boston Center
04:33PM 43.1861 -72.5114 271° West 388 447 16,000  Level Boston Center
04:34PM 43.1900 -72.6564 272° West 388 447 16,100  Climbing Boston Center
04:35PM 43.1917 -72.8017 271° West 388 447 16,000  Descending Boston Center
04:36PM 43.1933 -72.9528 271° West 383 441 16,100  Climbing Boston Center
04:37PM 43.1925 -73.0950 270° West 383 441 16,100  Level Boston Center
04:38PM 43.1936 -73.2603 271° West 390 449 16,100  Level Boston Center
04:39PM 43.1947 -73.3942 271° West 390 449 16,100  Level Boston Center
04:40PM 43.1806 -73.5592 263° West 390 449 16,100 -60 Level Boston Center
04:41PM 43.1108 -73.6658 228° Southwest 389 448 16,000 -60 Descending Boston Center
04:42PM 43.0947 -73.7936 260° West 394 453 16,000  Level Boston Center
04:43PM 43.0675 -73.9692 258° West 394 453 16,000  Level Boston Center
04:44PM 42.9811 -74.0350 209° Southwest 368 423 16,000  Level Boston Center
04:45PM 42.8697 -73.9500 151° Southeast 359 413 16,000  Level Boston Center
04:46PM 42.7750 -73.8544 143° Southeast 378 435 16,000  Level Boston Center
04:47PM 42.6583 -73.8517 179° South 409 471 16,000  Level Boston Center
04:48PM 42.5453 -73.8942 195° South 403 464 16,000  Level Boston Center
04:49PM 42.4342 -73.9422 198° South 421 484 16,000  Level Boston Center
04:50PM 42.3336 -73.9903 199° South 402 463 16,000  Level Boston Center
04:51PM 42.2497 -74.0247 197° South 367 422 16,000  Level Boston Center
04:52PM 42.1511 -74.0700 199° South 347 399 16,000 -540 Level Boston Center
04:53PM 42.1017 -74.1667 235° Southwest 315 362 15,000 -1,200 Descending Boston Center
04:54PM 42.0647 -74.2578 241° Southwest 318 366 13,600 -1,620 Descending Boston Center
04:55PM 41.9806 -74.3114 205° Southwest 306 352 11,900 -1,620 Descending Boston Center
04:56PM 41.9033 -74.3203 185° South 306 352 10,500 -1,440 Descending Boston Center
04:57PM 41.8092 -74.3369 188° South 312 359 9,000 -1,260 Descending Boston Center
04:58PM 41.7342 -74.3486 187° South 312 359 8,100 -540 Descending Boston Center
04:59PM 41.6400 -74.3594 185° South 312 359 8,000 -60 Descending Boston Center
05:00PM 41.5669 -74.3683 185° South 312 359 8,000 -360 Level Boston Center
05:02PM 41.3833 -74.4000 187° South 290 334 7,000 -360 Descending New York TRACON
05:03PM 41.3000 -74.4333 197° South 283 326 7,000  Level New York TRACON
05:04PM 41.2333 -74.4667 201° Southwest 254 292 7,000  Level New York TRACON
05:05PM 41.1667 -74.4500 169° South 231 266 7,000 -360 Level New York TRACON
05:06PM 41.1167 -74.4167 153° Southeast 234 269 6,300 -900 Descending New York TRACON
05:07PM 41.0833 -74.3500 124° Southeast 222 255 5,300 -660 Descending New York TRACON
05:08PM 41.0500 -74.3000 131° Southeast 193 222 5,000 -300 Descending New York TRACON
05:09PM 41.0167 -74.2333 124° Southeast 192 221 4,800 -540 Descending New York TRACON
05:10PM 40.9833 -74.1833 131° Southeast 192 221 4,000 -420 Descending New York TRACON
05:11PM 40.9500 -74.1333 131° Southeast 188 216 4,000  Level New York TRACON
05:12PM 40.9167 -74.0833 131° Southeast 183 211 4,000 -300 Level New York TRACON
05:13PM 40.8833 -74.0500 143° Southeast 186 214 3,400 -540 Descending New York TRACON
05:14PM 40.8333 -74.0667 194° South 180 207 3,000 -660 Descending New York TRACON
05:15PM 40.7833 -74.1000 207° Southwest 178 205 2,100 -900 Descending New York TRACON
05:16PM 40.7500 -74.1333 217° Southwest 159 183 1,200 -900 Descending New York TRACON
05:17PM 40.7167 -74.1500 201° Southwest 147 169 400 -840 Descending New York TRACON